Time;durP1;ratioP1;P1;durP2;ratioP2;P2;SDS_P1;SDS_P2;PMS_P1;PMS_P2;Temp;Humidity;BMP_temperature;BMP_pressure;BME280_temperature;BME280_humidity;BME280_pressure;Samples;Min_cycle;Max_cycle;Signal;HPM_P1;HPM_P2
2022/04/22 00:02:20;;;;;;;1.40;1.20;;;;;;;5.54;80.92;98150.59;104701;1273;75653;-25
2022/04/22 00:04:49;;;;;;;1.60;1.20;;;;;;;5.39;81.32;98152.41;104856;1273;75771;-25
2022/04/22 00:07:21;;;;;;;1.90;1.40;;;;;;;5.09;82.56;98147.90;104556;1274;74369;-25
2022/04/22 00:09:50;;;;;;;1.30;0.80;;;;;;;4.99;83.22;98150.69;104694;1273;61889;-25
2022/04/22 00:12:19;;;;;;;1.40;0.90;;;;;;;5.56;81.68;98150.63;105078;1273;61897;-24
2022/04/22 00:15:04;;;;;;;1.50;1.20;;;;;;;5.70;80.60;98148.58;105041;1273;75501;-24
2022/04/22 00:17:33;;;;;;;0.80;0.70;;;;;;;5.73;80.13;98144.71;104766;1274;74215;-24
2022/04/22 00:20:22;;;;;;;2.30;1.30;;;;;;;5.33;81.50;98142.17;104667;1274;73565;-24
2022/04/22 00:23:10;;;;;;;2.70;2.00;;;;;;;5.11;82.42;98138.83;104701;1274;62327;-24
2022/04/22 00:25:39;;;;;;;4.10;1.60;;;;;;;5.15;83.01;98137.33;104748;1273;62356;-31
2022/04/22 00:28:08;;;;;;;2.50;1.80;;;;;;;5.58;81.51;98142.09;104732;1274;74965;-25
2022/04/22 00:30:56;;;;;;;1.60;1.30;;;;;;;5.72;80.78;98144.80;104699;1273;75972;-25
2022/04/22 00:33:27;;;;;;;1.80;1.40;;;;;;;5.35;81.67;98137.41;104705;1274;74460;-24
2022/04/22 00:35:56;;;;;;;2.20;1.70;;;;;;;5.17;82.55;98135.13;104698;1273;61181;-24
2022/04/22 00:38:38;;;;;;;1.90;1.40;;;;;;;5.04;83.09;98129.83;104634;1271;62368;-26
2022/04/22 00:41:26;;;;;;;2.00;1.50;;;;;;;5.52;81.87;98125.32;104856;1271;76602;-26
2022/04/22 00:43:57;;;;;;;2.20;1.50;;;;;;;5.63;80.89;98126.33;105133;1272;76025;-26
2022/04/22 00:46:45;;;;;;;3.10;2.10;;;;;;;5.53;81.02;98126.98;104853;1271;74770;-26
2022/04/22 00:49:14;;;;;;;2.30;1.60;;;;;;;5.22;82.27;98125.25;104946;1271;61154;-26
2022/04/22 00:52:03;;;;;;;2.40;1.60;;;;;;;5.11;82.31;98123.85;104766;1271;62340;-25
2022/04/22 00:54:33;;;;;;;3.80;2.50;;;;;;;5.11;82.98;98123.13;104837;1274;74519;-25
2022/04/22 00:57:01;;;;;;;5.80;2.40;;;;;;;5.51;82.17;98121.38;104793;1272;74995;-26
2022/04/22 00:59:30;;;;;;;3.60;1.90;;;;;;;5.44;81.57;98125.49;105039;1274;74487;-26
2022/04/22 01:01:59;;;;;;;2.90;1.60;;;;;;;5.16;82.96;98122.60;104905;1274;61173;-25
2022/04/22 01:10:05;;;;;;;1.20;1.00;;;;;;;5.54;81.37;98121.87;105015;1274;76057;-26
2022/04/22 01:12:53;;;;;;;1.00;0.90;;;;;;;5.65;80.86;98118.14;104647;1271;73542;-26
2022/04/22 01:15:23;;;;;;;1.60;1.10;;;;;;;5.44;81.73;98119.36;104642;1271;61110;-25
2022/04/22 01:17:53;;;;;;;1.10;1.00;;;;;;;5.12;82.94;98113.77;105007;1271;61116;-26
2022/04/22 01:20:41;;;;;;;2.20;1.20;;;;;;;5.09;82.91;98111.63;104933;1271;74444;-25
2022/04/22 01:23:13;;;;;;;1.40;1.20;;;;;;;5.43;82.23;98115.09;105025;1271;75858;-25
2022/04/22 01:25:43;;;;;;;1.40;1.30;;;;;;;5.90;80.40;98114.48;105019;1271;74198;-26
2022/04/22 01:28:13;;;;;;;2.00;1.20;;;;;;;5.88;79.83;98110.87;104723;1271;61246;-25
2022/04/22 01:30:42;;;;;;;2.20;1.70;;;;;;;5.65;80.78;98109.70;104748;1272;61207;-26
2022/04/22 01:33:30;;;;;;;1.80;1.30;;;;;;;5.19;82.41;98108.25;104935;1271;76886;-25
2022/04/22 01:35:59;;;;;;;1.30;1.00;;;;;;;4.96;83.53;98108.75;104871;1274;74977;-25
2022/04/22 01:38:48;;;;;;;1.70;1.40;;;;;;;5.47;82.13;98107.02;104757;1271;75788;-25
2022/04/22 01:41:17;;;;;;;2.10;1.50;;;;;;;5.63;81.21;98109.51;104656;1271;62102;-25
2022/04/22 01:44:06;;;;;;;2.40;1.60;;;;;;;5.60;81.35;98111.42;105095;1271;63768;-25
2022/04/22 01:46:35;;;;;;;2.80;1.80;;;;;;;5.37;82.04;98107.48;105092;1271;75514;-24
2022/04/22 01:49:17;;;;;;;3.50;1.70;;;;;;;5.23;82.37;98109.15;104851;1271;76317;-24
2022/04/22 01:51:46;;;;;;;2.40;1.40;;;;;;;5.03;83.88;98111.67;104945;1271;74242;-24
2022/04/22 01:54:16;;;;;;;2.30;1.60;;;;;;;5.44;82.36;98114.51;105100;1271;61212;-24
2022/04/22 01:56:45;;;;;;;2.40;1.30;;;;;;;5.74;81.19;98112.92;104796;1271;60990;-24
2022/04/22 01:59:13;;;;;;;3.20;1.30;;;;;;;5.76;80.63;98114.91;105089;1271;75793;-24
2022/04/22 02:01:45;;;;;;;3.70;1.40;;;;;;;5.33;82.13;98115.64;104955;1271;76088;-24
2022/04/22 02:04:14;;;;;;;2.90;1.50;;;;;;;5.25;82.58;98112.45;104967;1271;74184;-24
2022/04/22 02:06:45;;;;;;;2.90;2.10;;;;;;;4.96;83.87;98107.41;105000;1271;61115;-24
2022/04/22 02:09:34;;;;;;;3.20;2.00;;;;;;;4.80;85.17;98109.73;104979;1271;62145;-24
2022/04/22 02:12:04;;;;;;;3.50;2.60;;;;;;;5.38;83.23;98109.95;104752;1271;73975;-24
2022/04/22 02:14:39;;;;;;;4.80;2.30;;;;;;;5.61;82.08;98112.91;104550;1274;75985;-24
2022/04/22 02:17:28;;;;;;;5.00;3.10;;;;;;;5.34;82.15;98104.91;104944;1271;73399;-24
2022/04/22 02:19:57;;;;;;;4.40;3.50;;;;;;;4.88;84.62;98101.77;104754;1271;61011;-24
2022/04/22 02:22:25;;;;;;;3.50;2.20;;;;;;;4.58;86.15;98102.06;104829;1271;61121;-24
2022/04/22 02:24:56;;;;;;;2.50;2.00;;;;;;;4.61;86.70;98099.27;104779;1271;75545;-25
2022/04/22 02:30:32;;;;;;;2.00;1.60;;;;;;;4.75;85.56;98100.85;104671;1271;75480;-24
2022/04/22 02:33:02;;;;;;;2.10;1.50;;;;;;;4.84;85.22;98102.02;104734;1272;61796;-24
2022/04/22 02:35:50;;;;;;;2.50;1.60;;;;;;;4.57;86.27;98104.87;104739;1271;62180;-24
2022/04/22 02:38:19;;;;;;;2.60;1.60;;;;;;;4.46;87.31;98102.34;105051;1271;75669;-24
2022/04/22 02:46:43;;;;;;;5.80;3.70;;;;;;;4.61;86.56;98108.02;104659;1274;62041;-24
2022/04/22 02:49:11;;;;;;;3.70;2.40;;;;;;;4.51;87.14;98109.42;105045;1272;61662;-24
2022/04/22 02:51:40;;;;;;;6.20;3.60;;;;;;;4.70;86.22;98113.21;104880;1271;75513;-24
2022/04/22 02:54:34;;;;;;;6.20;4.10;;;;;;;5.08;84.39;98117.68;104872;1271;76102;-24
2022/04/22 02:57:04;;;;;;;10.40;6.50;;;;;;;5.12;84.18;98122.24;105003;1271;73447;-25
2022/04/22 02:59:53;;;;;;;6.60;4.60;;;;;;;4.82;85.26;98125.95;104791;1271;62055;-25
2022/04/22 03:02:22;;;;;;;2.90;2.30;;;;;;;4.66;86.03;98125.86;105173;1271;62061;-25
2022/04/22 03:05:10;;;;;;;6.20;4.00;;;;;;;4.92;85.19;98128.13;105066;1271;75664;-24
2022/04/22 03:07:40;;;;;;;6.70;4.70;;;;;;;5.18;84.12;98131.38;105024;1271;75984;-25
2022/04/22 03:10:09;;;;;;;5.60;3.40;;;;;;;4.87;84.81;98131.92;105144;1271;74566;-26
2022/04/22 03:12:57;;;;;;;4.00;2.40;;;;;;;4.63;86.01;98137.55;105070;1271;62984;-23
2022/04/22 03:15:26;;;;;;;4.30;3.00;;;;;;;4.52;87.13;98140.78;105135;1271;61832;-27
2022/04/22 03:17:55;;;;;;;2.70;2.40;;;;;;;4.82;85.76;98140.55;104871;1271;74643;-28
2022/04/22 03:20:25;;;;;;;10.00;6.10;;;;;;;4.99;84.80;98142.09;104985;1271;75856;-25
2022/04/22 03:22:53;;;;;;;4.00;2.30;;;;;;;4.70;85.87;98136.94;104803;1271;74497;-25
2022/04/22 03:25:42;;;;;;;8.50;4.30;;;;;;;4.51;86.82;98139.45;104947;1273;63284;-27
2022/04/22 03:28:17;;;;;;;3.80;2.90;;;;;;;4.63;86.91;98138.27;105121;1271;61111;-26
2022/04/22 03:31:06;;;;;;;4.10;3.20;;;;;;;4.86;85.65;98143.15;104951;1271;74736;-26
2022/04/22 03:33:35;;;;;;;2.90;2.40;;;;;;;4.89;85.47;98148.84;104913;1271;75009;-26
2022/04/22 03:36:23;;;;;;;9.20;5.60;;;;;;;4.63;86.64;98149.96;104986;1271;75776;-27
2022/04/22 03:39:12;;;;;;;10.10;6.20;;;;;;;4.72;86.65;98153.98;104775;1271;63033;-25
2022/04/22 03:42:01;;;;;;;10.80;6.90;;;;;;;5.01;85.23;98155.69;104862;1271;62228;-26
2022/04/22 03:44:30;;;;;;;9.50;6.20;;;;;;;5.16;84.40;98151.17;104684;1273;74448;-26
2022/04/22 03:47:19;;;;;;;7.20;5.10;;;;;;;5.04;85.04;98147.05;104740;1271;77077;-25
2022/04/22 03:49:49;;;;;;;4.90;3.90;;;;;;;4.95;85.43;98151.80;104973;1271;74499;-25
2022/04/22 03:52:37;;;;;;;5.50;4.00;;;;;;;4.81;86.10;98151.14;104756;1271;63609;-26
2022/04/22 03:55:07;;;;;;;5.80;4.20;;;;;;;5.15;85.25;98155.69;105061;1273;62113;-26
2022/04/22 03:58:10;;;;;;;9.10;5.10;;;;;;;5.42;83.85;98152.56;105093;1271;76702;-25
2022/04/22 04:00:50;;;;;;;13.40;8.00;;;;;;;5.20;84.54;98153.80;105131;1271;75729;-26
2022/04/22 04:03:23;;;;;;;11.80;7.20;;;;;;;4.90;85.59;98150.97;105018;1271;73446;-25
2022/04/22 04:05:52;;;;;;;5.20;3.20;;;;;;;4.88;86.12;98150.97;104923;1271;62807;-26
2022/04/22 04:08:41;;;;;;;5.50;3.90;;;;;;;5.23;84.87;98157.87;104796;1271;62397;-25
2022/04/22 04:17:07;;;;;;;3.60;3.20;;;;;;;5.17;84.71;98164.53;105021;1271;77409;-26
2022/04/22 04:25:32;;;;;;;5.90;3.00;;;;;;;5.65;83.24;98172.75;104791;1271;75338;-26
2022/04/22 04:28:09;;;;;;;3.60;3.00;;;;;;;5.34;84.29;98171.05;104667;1273;76086;-26
2022/04/22 04:30:42;;;;;;;4.10;3.00;;;;;;;5.03;85.79;98170.16;104811;1271;73691;-26
2022/04/22 04:33:11;;;;;;;3.70;2.90;;;;;;;4.82;86.87;98166.48;104948;1271;63423;-26
2022/04/22 04:35:50;;;;;;;4.40;3.40;;;;;;;5.23;85.93;98169.05;105119;1271;61164;-26
2022/04/22 04:38:20;;;;;;;4.50;3.60;;;;;;;5.37;84.65;98169.63;104870;1271;74378;-27
2022/04/22 04:40:48;;;;;;;3.80;2.90;;;;;;;5.28;84.80;98164.09;104961;1271;74739;-25
2022/04/22 04:43:18;;;;;;;5.30;3.90;;;;;;;5.14;85.72;98165.25;104678;1271;73435;-25
2022/04/22 04:46:07;;;;;;;4.50;2.90;;;;;;;5.21;86.09;98169.39;104903;1271;63720;-25
2022/04/22 04:48:36;;;;;;;7.80;3.90;;;;;;;5.61;84.58;98171.77;104811;1271;61229;-26
2022/04/22 04:51:24;;;;;;;6.30;3.80;;;;;;;5.94;82.89;98174.48;105090;1271;75454;-26
2022/04/22 04:53:54;;;;;;;5.20;3.50;;;;;;;5.77;83.32;98178.52;105142;1271;75009;-25
2022/04/22 04:56:43;;;;;;;8.70;3.60;;;;;;;5.51;84.55;98175.25;104888;1271;74380;-26
2022/04/22 04:59:12;;;;;;;13.50;5.10;;;;;;;5.30;85.36;98177.01;104734;1271;62131;-26
2022/04/22 05:02:00;;;;;;;6.70;3.00;;;;;;;5.34;85.66;98186.20;104889;1271;61086;-27
2022/04/22 05:04:31;;;;;;;8.00;4.60;;;;;;;5.88;83.43;98191.99;105018;1271;75715;-27
2022/04/22 05:07:20;;;;;;;8.30;4.00;;;;;;;5.81;83.62;98189.58;105080;1271;76269;-26
2022/04/22 05:09:49;;;;;;;6.90;3.90;;;;;;;5.65;84.17;98188.02;105115;1271;74411;-25
2022/04/22 05:12:19;;;;;;;4.80;3.30;;;;;;;5.47;84.81;98188.34;104955;1269;61196;-25
2022/04/22 05:15:09;;;;;;;4.00;2.80;;;;;;;5.43;85.48;98187.95;104772;1271;61874;-24
2022/04/22 05:17:40;;;;;;;4.90;3.00;;;;;;;5.87;84.15;98187.21;104642;1271;75299;-25
2022/04/22 05:20:11;;;;;;;6.80;3.70;;;;;;;6.21;82.94;98182.46;105031;1272;76098;-26
2022/04/22 05:22:53;;;;;;;4.70;3.10;;;;;;;6.04;83.02;98183.20;104724;1275;74410;-25
2022/04/22 05:25:23;;;;;;;5.00;3.40;;;;;;;5.94;83.23;98186.02;104780;1273;61162;-25
2022/04/22 05:28:11;;;;;;;4.00;2.80;;;;;;;5.92;83.40;98194.77;105122;1271;62442;-26
2022/04/22 05:33:48;;;;;;;4.80;3.10;;;;;;;6.74;81.31;98208.74;104954;1271;77021;-26
2022/04/22 05:36:20;;;;;;;6.60;3.30;;;;;;;6.88;79.45;98213.13;104932;1271;74415;-26
2022/04/22 05:39:10;;;;;;;3.90;3.10;;;;;;;7.04;79.04;98221.86;104972;1271;62669;-26
2022/04/22 05:41:40;;;;;;;4.40;3.00;;;;;;;6.66;79.87;98221.24;105138;1271;61145;-26
2022/04/22 05:44:09;;;;;;;3.70;2.60;;;;;;;6.33;81.77;98224.30;105112;1271;76597;-26
2022/04/22 05:46:38;;;;;;;5.60;3.20;;;;;;;6.17;82.45;98224.64;104985;1271;76198;-25
2022/04/22 05:49:07;;;;;;;4.90;2.50;;;;;;;6.10;83.16;98225.88;105025;1272;74296;-26
2022/04/22 05:51:36;;;;;;;5.70;3.50;;;;;;;6.70;81.47;98226.95;104842;1271;61772;-26
2022/04/22 05:54:05;;;;;;;5.20;3.00;;;;;;;6.94;79.98;98225.77;104630;1271;61124;-26
2022/04/22 05:56:34;;;;;;;6.20;2.90;;;;;;;7.00;79.73;98232.77;104763;1271;75546;-26
2022/04/22 05:59:03;;;;;;;4.00;2.70;;;;;;;6.84;79.48;98235.56;104821;1271;77478;-26
2022/04/22 06:01:32;;;;;;;4.00;3.00;;;;;;;6.55;80.64;98233.61;104920;1271;74564;-26
2022/04/22 06:04:01;;;;;;;3.70;2.70;;;;;;;6.35;81.34;98238.63;105113;1271;61160;-26
2022/04/22 06:06:33;;;;;;;2.20;1.70;;;;;;;6.20;82.71;98243.35;105097;1271;62092;-26
2022/04/22 06:11:58;;;;;;;4.00;2.40;;;;;;;7.35;78.77;98253.64;105087;1271;75892;-26
2022/04/22 06:14:27;;;;;;;2.50;1.50;;;;;;;6.99;78.96;98255.09;105128;1271;75131;-27
2022/04/22 06:16:56;;;;;;;3.40;2.20;;;;;;;6.88;79.38;98253.37;104797;1271;61077;-27
2022/04/22 06:19:45;;;;;;;2.80;1.90;;;;;;;6.68;80.28;98257.52;104827;1271;62216;-27
2022/04/22 06:22:14;;;;;;;3.80;2.10;;;;;;;6.53;80.75;98260.92;104996;1271;75526;-27
2022/04/22 06:24:42;;;;;;;2.90;2.00;;;;;;;6.41;81.70;98259.06;105157;1271;76058;-27
2022/04/22 06:27:35;;;;;;;2.60;1.80;;;;;;;7.11;80.77;98265.50;105055;1271;75917;-27
2022/04/22 06:30:09;;;;;;;2.50;1.80;;;;;;;7.62;78.22;98267.86;104538;1274;61258;-27
2022/04/22 06:32:58;;;;;;;;;;;;;;;7.68;78.18;98273.75;104440;1274;63231;-27
2022/04/22 06:35:27;;;;;;;3.00;2.10;;;;;;;7.52;77.35;98277.61;104859;1273;75543;-25
2022/04/22 06:37:57;;;;;;;3.50;2.10;;;;;;;7.30;78.00;98283.16;104903;1272;73771;-26
2022/04/22 06:46:22;;;;;;;3.10;2.10;;;;;;;7.45;77.74;98296.02;104712;1273;62167;-26
2022/04/22 06:49:11;;;;;;;3.20;2.10;;;;;;;7.61;76.74;98294.91;104914;1271;75696;-26
2022/04/22 06:51:40;;;;;;;4.20;2.70;;;;;;;7.52;77.18;98297.84;104839;1272;75819;-26
2022/04/22 06:54:31;;;;;;;3.60;2.20;;;;;;;7.06;78.53;98299.54;104956;1271;74504;-26
2022/04/22 06:57:02;;;;;;;2.70;2.00;;;;;;;6.86;79.24;98300.59;104746;1272;62015;-26
2022/04/22 06:59:31;;;;;;;3.90;2.50;;;;;;;6.73;79.67;98298.30;105099;1271;61122;-26
2022/04/22 07:02:00;;;;;;;2.60;1.90;;;;;;;6.66;80.46;98292.84;104753;1271;75601;-27
2022/04/22 07:04:30;;;;;;;3.40;2.00;;;;;;;7.10;79.06;98295.98;104658;1271;76190;-27
2022/04/22 07:06:59;;;;;;;3.00;1.90;;;;;;;7.65;77.91;98302.64;104417;1273;74309;-27
2022/04/22 07:09:30;;;;;;;2.60;1.90;;;;;;;7.72;76.85;98303.34;104592;1273;61573;-26
2022/04/22 07:11:58;;;;;;;4.10;2.30;;;;;;;7.53;76.69;98307.10;104656;1271;61072;-27
2022/04/22 07:14:47;;;;;;;3.10;2.20;;;;;;;7.27;77.32;98310.86;104827;1271;75855;-28
2022/04/22 07:17:16;;;;;;;3.10;1.90;;;;;;;7.11;78.02;98308.55;104968;1271;76164;-28
2022/04/22 07:19:48;;;;;;;3.90;2.50;;;;;;;6.97;78.95;98316.67;105049;1273;74472;-28
2022/04/22 07:22:18;;;;;;;2.70;1.90;;;;;;;7.49;77.40;98321.92;105124;1271;61232;-28
2022/04/22 07:24:47;;;;;;;3.60;2.20;;;;;;;7.79;76.64;98326.59;104845;1271;61016;-28
2022/04/22 07:27:17;;;;;;;3.90;2.00;;;;;;;7.72;76.87;98328.23;104949;1271;76015;-28
2022/04/22 07:30:06;;;;;;;3.00;2.30;;;;;;;7.43;77.17;98323.73;105102;1271;74593;-29
2022/04/22 07:32:39;;;;;;;3.30;2.20;;;;;;;7.19;78.46;98330.19;104996;1271;73601;-28
2022/04/22 07:35:27;;;;;;;4.10;2.10;;;;;;;7.03;79.44;98332.27;104764;1271;63633;-30
2022/04/22 07:37:57;;;;;;;2.50;1.70;;;;;;;7.50;78.05;98335.10;105145;1271;61743;-29
2022/04/22 07:40:50;;;;;;;2.80;2.20;;;;;;;7.81;76.29;98333.18;105086;1271;76685;-32
2022/04/22 07:46:46;;;;;;;2.60;2.20;;;;;;;7.55;77.29;98334.88;104982;1271;76022;-30
2022/04/22 07:49:16;;;;;;;2.90;1.90;;;;;;;7.41;77.78;98329.50;104774;1272;62040;-30
2022/04/22 07:52:05;;;;;;;2.30;1.30;;;;;;;7.28;78.24;98326.19;104634;1271;61927;-30
2022/04/22 07:54:34;;;;;;;2.40;1.80;;;;;;;7.74;76.40;98329.55;104655;1271;75097;-30
2022/04/22 07:57:23;;;;;;;3.50;1.80;;;;;;;8.22;75.94;98336.23;104949;1271;76555;-30
2022/04/22 07:59:54;;;;;;;3.30;2.20;;;;;;;8.27;75.39;98343.42;104761;1271;74462;-29
2022/04/22 08:02:42;;;;;;;2.00;1.60;;;;;;;8.07;75.55;98338.16;104910;1271;61176;-30
2022/04/22 08:05:11;;;;;;;2.50;1.90;;;;;;;7.93;75.72;98335.30;104943;1271;61992;-29
2022/04/22 08:07:41;;;;;;;2.80;2.10;;;;;;;7.75;76.20;98332.76;105015;1271;75550;-29
2022/04/22 08:10:29;;;;;;;3.50;2.30;;;;;;;7.73;77.56;98333.66;105045;1271;77203;-28
2022/04/22 08:13:00;;;;;;;2.00;1.70;;;;;;;8.28;75.21;98335.42;104621;1271;74648;-28
2022/04/22 08:15:30;;;;;;;3.30;2.20;;;;;;;8.76;73.21;98337.30;104743;1271;61196;-26
2022/04/22 08:18:19;;;;;;;3.10;1.60;;;;;;;8.86;73.25;98343.20;105093;1271;62155;-26
2022/04/22 08:20:55;;;;;;;3.40;2.00;;;;;;;8.59;72.68;98345.66;105008;1271;75536;-26
2022/04/22 08:23:24;;;;;;;2.40;1.70;;;;;;;8.54;73.61;98350.08;105032;1271;75568;-26
2022/04/22 08:26:13;;;;;;;2.60;2.00;;;;;;;8.25;73.79;98351.17;105083;1271;74809;-26
2022/04/22 08:28:43;;;;;;;2.00;1.40;;;;;;;8.06;75.21;98348.90;104963;1273;62566;-26
2022/04/22 08:31:14;;;;;;;3.60;1.50;;;;;;;8.48;74.43;98355.55;104977;1272;61146;-26
2022/04/22 08:33:47;;;;;;;2.70;1.80;;;;;;;8.65;72.93;98354.33;105029;1271;74476;-26
2022/04/22 08:36:15;;;;;;;1.80;1.40;;;;;;;8.80;73.02;98355.88;104904;1271;75054;-26
2022/04/22 08:39:05;;;;;;;2.50;1.60;;;;;;;8.81;73.12;98354.20;105073;1271;75526;-26
2022/04/22 08:41:35;;;;;;;3.00;1.60;;;;;;;8.73;72.71;98354.89;105111;1271;60966;-26
2022/04/22 08:44:23;;;;;;;4.00;1.30;;;;;;;8.48;73.07;98352.80;104988;1271;62493;-26
2022/04/22 08:52:53;;;;;;;1.80;1.40;;;;;;;9.34;71.24;98356.05;104984;1271;75296;-28
2022/04/22 08:55:43;;;;;;;1.30;1.10;;;;;;;9.61;69.94;98352.02;104790;1271;62011;-27
2022/04/22 08:58:11;;;;;;;1.50;1.20;;;;;;;9.54;69.91;98357.83;104642;1271;61177;-28
2022/04/22 09:01:00;;;;;;;1.80;1.40;;;;;;;9.14;70.54;98362.30;104728;1271;75504;-29
2022/04/22 09:03:30;;;;;;;1.20;1.00;;;;;;;8.85;71.25;98362.73;104686;1273;74331;-27
2022/04/22 09:06:20;;;;;;;1.70;1.10;;;;;;;8.66;71.98;98365.27;104757;1271;75653;-27
2022/04/22 09:09:05;;;;;;;1.20;1.10;;;;;;;8.59;71.95;98374.58;104682;1271;61084;-27
2022/04/22 09:11:40;;;;;;;1.60;1.10;;;;;;;8.49;72.68;98376.24;105014;1271;61133;-26
2022/04/22 09:14:29;;;;;;;1.50;1.20;;;;;;;9.02;71.63;98375.92;104778;1271;75689;-27
2022/04/22 09:16:58;;;;;;;1.10;1.00;;;;;;;9.42;70.54;98381.75;104936;1271;75961;-27
2022/04/22 09:19:34;;;;;;;1.70;1.20;;;;;;;9.34;69.67;98386.00;105089;1273;74463;-26
2022/04/22 09:22:24;;;;;;;3.20;1.40;;;;;;;9.07;71.05;98388.33;104718;1273;62330;-27
2022/04/22 09:25:00;;;;;;;1.30;1.20;;;;;;;8.72;71.03;98388.48;104731;1273;61105;-26
2022/04/22 09:27:33;;;;;;;2.00;1.60;;;;;;;8.50;72.42;98392.73;104611;1271;74522;-26
2022/04/22 09:30:22;;;;;;;2.20;1.00;;;;;;;8.21;73.09;98394.23;104557;1274;77250;-26
2022/04/22 09:32:51;;;;;;;1.70;1.40;;;;;;;8.51;72.76;98396.81;104510;1273;74770;-26
2022/04/22 09:35:24;;;;;;;2.00;1.20;;;;;;;8.97;71.10;98392.11;104823;1271;61229;-27
2022/04/22 09:43:39;;;;;;;2.10;1.80;;;;;;;8.70;71.71;98398.59;105114;1272;75869;-28
2022/04/22 09:46:30;;;;;;;2.30;1.90;;;;;;;8.56;72.78;98401.80;104771;1273;73214;-27
2022/04/22 09:48:59;;;;;;;2.20;1.60;;;;;;;8.49;72.89;98397.48;104954;1273;63861;-27
2022/04/22 09:51:30;;;;;;;2.00;1.50;;;;;;;8.79;71.06;98393.98;104644;1273;61922;-27
2022/04/22 09:54:08;;;;;;;2.90;2.00;;;;;;;8.98;71.58;98392.27;104453;1275;74076;-27
2022/04/22 09:56:57;;;;;;;2.70;2.20;;;;;;;9.06;71.32;98399.34;104436;1273;77149;-28
2022/04/22 09:59:30;;;;;;;3.70;2.30;;;;;;;9.01;71.19;98406.35;104445;1273;73831;-27
2022/04/22 10:02:25;;;;;;;2.30;1.70;;;;;;;8.80;71.52;98405.36;104586;1273;63159;-27
2022/04/22 10:04:55;;;;;;;2.30;1.20;;;;;;;8.50;71.99;98403.64;104585;1273;61270;-26
2022/04/22 10:07:27;;;;;;;2.90;2.40;;;;;;;8.52;72.42;98405.34;104600;1273;75342;-27
2022/04/22 10:10:15;;;;;;;6.30;5.10;;;;;;;8.88;71.10;98412.61;104528;1273;77087;-27
2022/04/22 10:13:04;;;;;;;6.30;4.90;;;;;;;8.97;71.56;98415.33;104604;1273;74709;-26
2022/04/22 10:15:37;;;;;;;4.20;2.70;;;;;;;8.72;71.81;98417.24;104651;1273;62087;-27
2022/04/22 10:18:26;;;;;;;2.60;2.00;;;;;;;8.44;73.42;98417.80;104551;1273;62246;-28
2022/04/22 10:20:55;;;;;;;3.10;2.20;;;;;;;8.30;74.05;98418.73;104644;1272;74594;-27
2022/04/22 10:23:28;;;;;;;1.90;1.60;;;;;;;8.36;74.94;98425.70;104621;1273;76343;-28
2022/04/22 10:25:57;;;;;;;1.90;1.50;;;;;;;8.87;74.19;98429.98;104635;1273;73697;-27
2022/04/22 10:28:46;;;;;;;2.80;1.70;;;;;;;9.19;72.42;98435.27;104676;1273;61430;-27
2022/04/22 10:31:14;;;;;;;2.60;2.20;;;;;;;9.05;72.80;98435.45;104654;1273;61119;-27
2022/04/22 10:34:07;;;;;;;3.00;2.30;;;;;;;8.89;74.27;98440.23;104695;1273;75760;-27
2022/04/22 10:36:38;;;;;;;4.00;2.00;;;;;;;8.68;74.89;98440.42;104426;1273;75892;-27
2022/04/22 10:39:06;;;;;;;4.00;2.00;;;;;;;8.47;75.37;98436.55;104741;1273;74896;-27
2022/04/22 10:41:48;;;;;;;4.50;2.50;;;;;;;8.71;75.70;98437.27;104620;1273;61312;-27
2022/04/22 10:47:13;;;;;;;1.60;1.10;;;;;;;8.81;74.84;98439.39;104693;1273;75508;-27
2022/04/22 10:49:46;;;;;;;2.90;2.10;;;;;;;8.52;75.83;98435.69;104659;1273;75201;-30
2022/04/22 10:52:18;;;;;;;3.40;1.40;;;;;;;8.37;77.20;98436.67;104635;1273;73429;-30
2022/04/22 10:54:50;;;;;;;2.70;1.90;;;;;;;8.61;76.93;98441.00;104628;1273;61188;-30
2022/04/22 10:57:42;;;;;;;1.80;1.40;;;;;;;8.81;76.82;98445.95;104591;1273;62226;-32
2022/04/22 11:00:14;;;;;;;2.30;1.50;;;;;;;8.70;77.17;98444.94;104715;1273;75679;-30
2022/04/22 11:03:10;;;;;;;2.00;1.60;;;;;;;8.44;77.85;98442.48;104617;1274;74896;-30
2022/04/22 11:05:59;;;;;;;2.60;1.30;;;;;;;8.32;79.14;98440.55;104724;1273;73624;-31
2022/04/22 11:08:59;;;;;;;1.70;1.30;;;;;;;9.05;77.65;98447.86;104636;1274;61849;-31
2022/04/22 11:11:28;;;;;;;1.40;1.20;;;;;;;9.04;76.45;98451.13;104615;1273;60976;-33
2022/04/22 11:13:59;;;;;;;1.10;0.80;;;;;;;8.78;76.73;98452.05;104502;1273;75592;-33
2022/04/22 11:16:29;;;;;;;2.40;1.40;;;;;;;8.54;77.33;98452.14;104474;1276;76087;-33
2022/04/22 11:19:10;;;;;;;1.50;1.00;;;;;;;8.29;78.16;98450.11;104730;1273;73595;-32
2022/04/22 11:22:00;;;;;;;2.40;1.30;;;;;;;8.62;78.07;98454.09;104659;1273;61081;-33
2022/04/22 11:24:30;;;;;;;2.70;1.00;;;;;;;8.96;76.96;98457.86;104642;1273;61018;-32
2022/04/22 11:27:08;;;;;;;1.50;1.10;;;;;;;8.80;76.52;98458.80;104669;1273;74369;-32
2022/04/22 11:29:56;;;;;;;2.50;1.20;;;;;;;8.53;76.96;98459.09;105086;1273;77022;-30
2022/04/22 11:32:27;;;;;;;2.70;1.30;;;;;;;8.26;78.06;98456.30;104986;1274;74615;-29
2022/04/22 11:35:33;;;;;;;1.40;0.90;;;;;;;8.19;78.76;98456.41;104779;1273;63144;-30
2022/04/22 11:38:04;;;;;;;1.10;1.00;;;;;;;8.76;77.31;98456.69;104271;1277;61395;-31
2022/04/22 11:40:38;;;;;;;1.40;0.70;;;;;;;8.87;76.76;98460.14;104255;1278;74295;-31
2022/04/22 11:43:07;;;;;;;2.30;2.10;;;;;;;8.76;76.44;98455.71;104285;1277;75819;-31
2022/04/22 11:45:42;;;;;;;1.40;1.00;;;;;;;8.59;76.89;98457.27;104481;1277;72411;-29
2022/04/22 11:48:30;;;;;;;1.80;1.20;;;;;;;8.42;77.47;98458.41;104071;1279;61320;-29
2022/04/22 11:51:00;;;;;;;0.50;0.50;;;;;;;8.34;77.96;98455.30;104614;1278;61115;-29
2022/04/22 11:53:51;;;;;;;1.50;0.70;;;;;;;8.93;77.02;98455.46;104527;1278;76640;-29
2022/04/22 11:56:24;;;;;;;1.70;1.10;;;;;;;9.22;75.20;98457.75;104137;1281;76013;-30
2022/04/22 11:58:54;;;;;;;1.20;0.80;;;;;;;9.15;75.42;98459.20;104243;1278;75049;-31
2022/04/22 12:10:00;;;;;;;1.10;1.00;;;;;;;9.34;77.31;98459.78;104287;1279;76020;-32
2022/04/22 12:12:31;;;;;;;2.10;1.00;;;;;;;9.65;75.35;98457.20;104466;1273;74567;-33
2022/04/22 12:15:02;;;;;;;2.90;1.60;;;;;;;9.43;75.66;98457.88;104797;1272;61157;-29
2022/04/22 12:17:34;;;;;;;1.60;1.40;;;;;;;9.32;76.24;98456.04;104673;1273;61263;-30
2022/04/22 12:20:07;;;;;;;2.20;1.50;;;;;;;9.09;77.21;98452.80;104753;1271;75603;-30
2022/04/22 12:22:36;;;;;;;2.10;0.90;;;;;;;8.87;78.03;98449.39;104639;1273;76277;-29
2022/04/22 12:25:11;;;;;;;1.70;1.00;;;;;;;9.29;78.06;98447.21;104877;1273;73226;-31
2022/04/22 12:27:44;;;;;;;1.70;1.10;;;;;;;9.77;76.19;98445.06;105072;1272;61148;-32
2022/04/22 12:30:14;;;;;;;1.50;1.10;;;;;;;9.78;75.99;98445.12;104916;1274;61950;-31
2022/04/22 12:32:52;;;;;;;1.50;1.40;;;;;;;9.65;76.35;98448.36;104957;1271;75355;-30
2022/04/22 12:35:21;;;;;;;2.40;1.30;;;;;;;9.44;76.45;98447.52;104820;1272;75926;-30
2022/04/22 12:37:52;;;;;;;1.30;0.90;;;;;;;9.29;77.14;98445.04;104632;1273;74473;-30
2022/04/22 12:40:22;;;;;;;1.00;0.90;;;;;;;9.65;76.21;98449.26;104721;1271;62058;-30
2022/04/22 12:42:51;;;;;;;1.80;1.30;;;;;;;10.12;75.32;98441.98;104802;1271;62017;-30
2022/04/22 12:54:07;;;;;;;4.30;2.50;;;;;;;9.12;76.99;98447.48;104673;1272;62034;-30
2022/04/22 12:56:37;;;;;;;2.30;1.40;;;;;;;8.91;78.60;98443.70;104775;1271;60962;-30
2022/04/22 12:59:06;;;;;;;1.80;1.30;;;;;;;9.40;77.96;98446.53;104786;1272;75763;-30
2022/04/22 13:01:42;;;;;;;2.80;1.80;;;;;;;9.86;76.20;98445.81;104765;1271;76045;-30
2022/04/22 13:04:23;;;;;;;2.70;1.80;;;;;;;9.84;76.06;98444.25;104631;1273;74591;-30
2022/04/22 13:06:51;;;;;;;2.00;1.40;;;;;;;9.60;76.07;98441.80;104646;1273;62123;-29
2022/04/22 13:09:34;;;;;;;2.50;2.10;;;;;;;9.34;76.86;98448.44;104732;1271;61057;-29
2022/04/22 13:13:13;;;;;;;2.10;1.30;;;;;;;9.01;78.21;98449.10;101963;1306;600648;-29
2022/04/22 13:15:42;;;;;;;4.50;1.60;;;;;;;9.37;78.05;98449.56;104430;1283;61071;-31
2022/04/22 13:18:13;;;;;;;2.90;1.80;;;;;;;9.88;76.67;98441.14;105139;1274;62349;-29
2022/04/22 13:20:43;;;;;;;3.30;2.20;;;;;;;9.96;76.08;98432.98;105166;1272;73982;-29
2022/04/22 13:23:13;;;;;;;5.20;2.80;;;;;;;9.77;75.93;98432.06;105113;1273;76400;-29
2022/04/22 13:25:44;;;;;;;7.60;4.90;;;;;;;9.53;76.77;98427.37;104750;1271;381747;-29
2022/04/22 13:28:13;;;;;;;7.90;5.50;;;;;;;9.34;77.26;98433.34;105074;1270;61024;-29
2022/04/22 13:30:44;;;;;;;5.90;3.70;;;;;;;9.15;77.82;98435.98;105110;1270;61840;-29